CYED/YED METAR and TAF weather

Enter ICAO airport designator
Station Type Date Time Source
CYED METAR 2019/12/13 01:10 UTC NOAA

CYED 130110Z AUTO 36005KT 9SM -SN OVC016 M16/M17 A2987


Station Type Date Time Source
CYED Decoded METAR 2019/12/13 01:10 UTC NOAA

Edmonton Namao Alta., Canada (CYED) 53-40N 113-28W 688M
Dec 12, 2019 - 08:10 PM EST / 2019.12.13 0110 UTC
Wind: from the N (360 degrees) at 6 MPH (5 KT):0
Visibility: 9 mile(s):0
Sky conditions: overcast
Weather: light snow
Temperature: 3 F (-16 C)
Windchill: -7 F (-22 C):2
Dew Point: 1 F (-17 C)
Relative Humidity: 91%
Pressure (altimeter): 29.87 in. Hg (1011 hPa)
ob: CYED 130110Z AUTO 36005KT 9SM -SN OVC016 M16/M17 A2987
cycle: 1

Station Type Date Time Source
CYED TAF 2019/12/12 22:54 UTC NOAA

TAF
AMD TAF
AMD CYED 122252Z 1222/1306 05005KT 2SM -SN OVC020
BECMG 1223/1301 P6SM NSW OVC030
RMK FCST BASED ON AUTO OBS. NXT FCST BY 130000Z

Example: see airport list